sensor_id;sensor_type;location;lat;lon;timestamp;P1;durP1;ratioP1;P2;durP2;ratioP2
46158;SDS011;31888;44.512;26.104;2023-06-24T00:02:09;22.88;;;16.88;;
46158;SDS011;31888;44.512;26.104;2023-06-24T00:04:34;21.75;;;17.60;;
46158;SDS011;31888;44.512;26.104;2023-06-24T00:06:58;24.08;;;17.85;;
46158;SDS011;31888;44.512;26.104;2023-06-24T00:09:24;23.48;;;17.73;;
46158;SDS011;31888;44.512;26.104;2023-06-24T00:11:50;20.92;;;17.85;;
46158;SDS011;31888;44.512;26.104;2023-06-24T00:14:14;25.75;;;19.08;;
46158;SDS011;31888;44.512;26.104;2023-06-24T00:16:40;24.40;;;17.60;;
46158;SDS011;31888;44.512;26.104;2023-06-24T00:19:05;24.75;;;18.67;;
46158;SDS011;31888;44.512;26.104;2023-06-24T00:21:30;22.98;;;17.10;;
46158;SDS011;31888;44.512;26.104;2023-06-24T00:23:55;25.42;;;17.77;;
46158;SDS011;31888;44.512;26.104;2023-06-24T00:26:20;24.48;;;17.40;;
46158;SDS011;31888;44.512;26.104;2023-06-24T00:28:45;24.90;;;18.20;;
46158;SDS011;31888;44.512;26.104;2023-06-24T00:31:11;20.48;;;16.23;;
46158;SDS011;31888;44.512;26.104;2023-06-24T00:33:40;26.10;;;17.88;;
46158;SDS011;31888;44.512;26.104;2023-06-24T00:36:05;23.95;;;17.08;;
46158;SDS011;31888;44.512;26.104;2023-06-24T00:38:31;23.42;;;17.42;;
46158;SDS011;31888;44.512;26.104;2023-06-24T00:40:56;20.50;;;16.27;;
46158;SDS011;31888;44.512;26.104;2023-06-24T00:43:21;22.48;;;18.10;;
46158;SDS011;31888;44.512;26.104;2023-06-24T00:45:46;21.17;;;17.67;;
46158;SDS011;31888;44.512;26.104;2023-06-24T00:48:11;23.75;;;18.60;;
46158;SDS011;31888;44.512;26.104;2023-06-24T00:50:38;28.63;;;18.95;;
46158;SDS011;31888;44.512;26.104;2023-06-24T00:53:05;22.77;;;17.17;;
46158;SDS011;31888;44.512;26.104;2023-06-24T00:55:29;24.20;;;18.02;;
46158;SDS011;31888;44.512;26.104;2023-06-24T00:57:55;24.08;;;17.02;;
46158;SDS011;31888;44.512;26.104;2023-06-24T01:00:27;21.33;;;16.65;;
46158;SDS011;31888;44.512;26.104;2023-06-24T01:02:52;34.92;;;22.40;;
46158;SDS011;31888;44.512;26.104;2023-06-24T01:05:17;34.20;;;26.17;;
46158;SDS011;31888;44.512;26.104;2023-06-24T01:07:48;37.08;;;25.70;;
46158;SDS011;31888;44.512;26.104;2023-06-24T01:10:18;24.08;;;20.52;;
46158;SDS011;31888;44.512;26.104;2023-06-24T01:12:47;38.97;;;27.05;;
46158;SDS011;31888;44.512;26.104;2023-06-24T01:15:12;42.22;;;31.42;;
46158;SDS011;31888;44.512;26.104;2023-06-24T01:17:40;38.60;;;29.35;;
46158;SDS011;31888;44.512;26.104;2023-06-24T01:20:10;30.92;;;22.40;;
46158;SDS011;31888;44.512;26.104;2023-06-24T01:22:52;38.75;;;28.15;;
46158;SDS011;31888;44.512;26.104;2023-06-24T01:25:44;47.90;;;32.07;;
46158;SDS011;31888;44.512;26.104;2023-06-24T01:28:26;41.50;;;31.58;;
46158;SDS011;31888;44.512;26.104;2023-06-24T01:33:58;35.15;;;24.33;;
46158;SDS011;31888;44.512;26.104;2023-06-24T01:36:29;30.30;;;22.77;;
46158;SDS011;31888;44.512;26.104;2023-06-24T01:39:00;29.65;;;23.30;;
46158;SDS011;31888;44.512;26.104;2023-06-24T01:41:29;28.98;;;20.42;;
46158;SDS011;31888;44.512;26.104;2023-06-24T01:43:58;24.77;;;17.98;;
46158;SDS011;31888;44.512;26.104;2023-06-24T01:46:25;22.92;;;17.42;;
46158;SDS011;31888;44.512;26.104;2023-06-24T01:48:54;18.30;;;15.43;;
46158;SDS011;31888;44.512;26.104;2023-06-24T01:51:23;21.83;;;16.73;;
46158;SDS011;31888;44.512;26.104;2023-06-24T01:53:51;25.20;;;19.38;;
46158;SDS011;31888;44.512;26.104;2023-06-24T01:56:18;29.20;;;21.42;;
46158;SDS011;31888;44.512;26.104;2023-06-24T01:58:45;23.13;;;19.42;;
46158;SDS011;31888;44.512;26.104;2023-06-24T02:01:14;26.50;;;20.15;;
46158;SDS011;31888;44.512;26.104;2023-06-24T02:03:40;25.23;;;19.75;;
46158;SDS011;31888;44.512;26.104;2023-06-24T02:06:07;25.35;;;19.85;;
46158;SDS011;31888;44.512;26.104;2023-06-24T02:08:33;30.13;;;21.05;;
46158;SDS011;31888;44.512;26.104;2023-06-24T02:11:01;25.80;;;19.02;;
46158;SDS011;31888;44.512;26.104;2023-06-24T02:13:27;25.88;;;19.88;;
46158;SDS011;31888;44.512;26.104;2023-06-24T02:15:54;24.23;;;17.75;;
46158;SDS011;31888;44.512;26.104;2023-06-24T02:18:20;25.83;;;18.30;;
46158;SDS011;31888;44.512;26.104;2023-06-24T02:20:49;23.55;;;17.98;;
46158;SDS011;31888;44.512;26.104;2023-06-24T02:23:16;25.92;;;18.52;;
46158;SDS011;31888;44.512;26.104;2023-06-24T02:25:42;24.42;;;17.27;;
46158;SDS011;31888;44.512;26.104;2023-06-24T02:28:07;21.70;;;17.13;;
46158;SDS011;31888;44.512;26.104;2023-06-24T02:30:32;25.33;;;18.42;;
46158;SDS011;31888;44.512;26.104;2023-06-24T02:32:59;25.15;;;18.20;;
46158;SDS011;31888;44.512;26.104;2023-06-24T02:35:24;23.75;;;17.52;;
46158;SDS011;31888;44.512;26.104;2023-06-24T02:37:49;24.52;;;17.15;;
46158;SDS011;31888;44.512;26.104;2023-06-24T02:40:16;19.67;;;16.88;;
46158;SDS011;31888;44.512;26.104;2023-06-24T02:42:42;26.00;;;17.23;;
46158;SDS011;31888;44.512;26.104;2023-06-24T02:45:07;19.67;;;16.23;;
46158;SDS011;31888;44.512;26.104;2023-06-24T02:47:32;24.63;;;16.95;;
46158;SDS011;31888;44.512;26.104;2023-06-24T02:49:59;22.83;;;17.00;;
46158;SDS011;31888;44.512;26.104;2023-06-24T02:52:25;19.83;;;16.42;;
46158;SDS011;31888;44.512;26.104;2023-06-24T02:54:52;18.50;;;16.48;;
46158;SDS011;31888;44.512;26.104;2023-06-24T02:57:27;22.95;;;16.65;;
46158;SDS011;31888;44.512;26.104;2023-06-24T03:00:11;21.80;;;16.92;;
46158;SDS011;31888;44.512;26.104;2023-06-24T03:03:04;21.48;;;17.20;;
46158;SDS011;31888;44.512;26.104;2023-06-24T03:05:35;21.95;;;17.02;;
46158;SDS011;31888;44.512;26.104;2023-06-24T03:08:00;23.80;;;17.13;;
46158;SDS011;31888;44.512;26.104;2023-06-24T03:10:27;22.13;;;17.20;;
46158;SDS011;31888;44.512;26.104;2023-06-24T03:12:56;18.73;;;16.40;;
46158;SDS011;31888;44.512;26.104;2023-06-24T03:15:29;20.75;;;16.65;;
46158;SDS011;31888;44.512;26.104;2023-06-24T03:17:56;20.80;;;16.67;;
46158;SDS011;31888;44.512;26.104;2023-06-24T03:20:21;21.98;;;17.20;;
46158;SDS011;31888;44.512;26.104;2023-06-24T03:22:48;21.92;;;17.13;;
46158;SDS011;31888;44.512;26.104;2023-06-24T03:25:13;21.10;;;15.95;;
46158;SDS011;31888;44.512;26.104;2023-06-24T03:27:37;20.80;;;15.50;;
46158;SDS011;31888;44.512;26.104;2023-06-24T03:30:04;22.95;;;15.00;;
46158;SDS011;31888;44.512;26.104;2023-06-24T03:32:31;19.40;;;16.90;;
46158;SDS011;31888;44.512;26.104;2023-06-24T03:34:58;22.58;;;15.88;;
46158;SDS011;31888;44.512;26.104;2023-06-24T03:37:26;19.08;;;16.30;;
46158;SDS011;31888;44.512;26.104;2023-06-24T03:39:50;19.52;;;16.10;;
46158;SDS011;31888;44.512;26.104;2023-06-24T03:42:16;19.95;;;16.17;;
46158;SDS011;31888;44.512;26.104;2023-06-24T03:44:41;20.75;;;16.52;;
46158;SDS011;31888;44.512;26.104;2023-06-24T03:47:08;20.05;;;16.05;;
46158;SDS011;31888;44.512;26.104;2023-06-24T03:49:32;22.52;;;16.77;;
46158;SDS011;31888;44.512;26.104;2023-06-24T03:51:57;26.67;;;18.45;;
46158;SDS011;31888;44.512;26.104;2023-06-24T03:54:22;25.63;;;18.27;;
46158;SDS011;31888;44.512;26.104;2023-06-24T03:56:47;25.45;;;18.58;;
46158;SDS011;31888;44.512;26.104;2023-06-24T03:59:12;20.38;;;16.80;;
46158;SDS011;31888;44.512;26.104;2023-06-24T04:01:38;23.25;;;18.23;;
46158;SDS011;31888;44.512;26.104;2023-06-24T04:04:04;20.15;;;17.98;;
46158;SDS011;31888;44.512;26.104;2023-06-24T04:06:29;23.30;;;17.10;;
46158;SDS011;31888;44.512;26.104;2023-06-24T04:08:54;21.55;;;17.58;;
46158;SDS011;31888;44.512;26.104;2023-06-24T04:11:19;26.50;;;17.38;;
46158;SDS011;31888;44.512;26.104;2023-06-24T04:13:43;22.13;;;16.63;;
46158;SDS011;31888;44.512;26.104;2023-06-24T04:16:09;23.95;;;17.20;;
46158;SDS011;31888;44.512;26.104;2023-06-24T04:18:34;22.15;;;18.55;;
46158;SDS011;31888;44.512;26.104;2023-06-24T04:21:03;22.52;;;18.42;;
46158;SDS011;31888;44.512;26.104;2023-06-24T04:23:29;22.65;;;18.35;;
46158;SDS011;31888;44.512;26.104;2023-06-24T04:25:54;22.23;;;17.95;;
46158;SDS011;31888;44.512;26.104;2023-06-24T04:28:21;24.95;;;17.65;;
46158;SDS011;31888;44.512;26.104;2023-06-24T04:30:46;24.85;;;20.17;;
46158;SDS011;31888;44.512;26.104;2023-06-24T04:33:10;27.65;;;19.77;;
46158;SDS011;31888;44.512;26.104;2023-06-24T04:35:36;25.30;;;18.30;;
46158;SDS011;31888;44.512;26.104;2023-06-24T04:38:02;31.65;;;19.33;;
46158;SDS011;31888;44.512;26.104;2023-06-24T04:40:28;25.52;;;18.85;;
46158;SDS011;31888;44.512;26.104;2023-06-24T04:42:53;25.20;;;19.50;;
46158;SDS011;31888;44.512;26.104;2023-06-24T04:45:19;32.00;;;18.30;;
46158;SDS011;31888;44.512;26.104;2023-06-24T04:47:45;30.60;;;17.88;;
46158;SDS011;31888;44.512;26.104;2023-06-24T04:50:10;23.98;;;17.52;;
46158;SDS011;31888;44.512;26.104;2023-06-24T04:52:34;23.27;;;16.45;;
46158;SDS011;31888;44.512;26.104;2023-06-24T04:55:01;24.23;;;17.02;;
46158;SDS011;31888;44.512;26.104;2023-06-24T04:57:26;31.50;;;16.58;;
46158;SDS011;31888;44.512;26.104;2023-06-24T04:59:52;22.20;;;15.90;;
46158;SDS011;31888;44.512;26.104;2023-06-24T05:02:17;21.33;;;16.05;;
46158;SDS011;31888;44.512;26.104;2023-06-24T05:04:42;27.48;;;16.17;;
46158;SDS011;31888;44.512;26.104;2023-06-24T05:07:07;24.00;;;16.73;;
46158;SDS011;31888;44.512;26.104;2023-06-24T05:09:33;24.83;;;15.95;;
46158;SDS011;31888;44.512;26.104;2023-06-24T05:12:02;24.20;;;16.88;;
46158;SDS011;31888;44.512;26.104;2023-06-24T05:14:27;22.45;;;14.88;;
46158;SDS011;31888;44.512;26.104;2023-06-24T05:16:52;23.70;;;14.90;;
46158;SDS011;31888;44.512;26.104;2023-06-24T05:19:16;23.25;;;15.55;;
46158;SDS011;31888;44.512;26.104;2023-06-24T05:21:44;23.35;;;16.02;;
46158;SDS011;31888;44.512;26.104;2023-06-24T05:24:08;22.48;;;14.50;;
46158;SDS011;31888;44.512;26.104;2023-06-24T05:26:33;21.83;;;16.08;;
46158;SDS011;31888;44.512;26.104;2023-06-24T05:29:00;20.70;;;15.07;;
46158;SDS011;31888;44.512;26.104;2023-06-24T05:31:25;23.48;;;15.32;;
46158;SDS011;31888;44.512;26.104;2023-06-24T05:33:50;23.92;;;14.13;;
46158;SDS011;31888;44.512;26.104;2023-06-24T05:36:22;24.92;;;15.25;;
46158;SDS011;31888;44.512;26.104;2023-06-24T05:39:21;22.80;;;14.98;;
46158;SDS011;31888;44.512;26.104;2023-06-24T05:42:16;26.25;;;14.85;;
46158;SDS011;31888;44.512;26.104;2023-06-24T05:45:50;20.52;;;14.70;;
46158;SDS011;31888;44.512;26.104;2023-06-24T05:48:23;21.20;;;14.27;;
46158;SDS011;31888;44.512;26.104;2023-06-24T05:50:48;20.85;;;14.88;;
46158;SDS011;31888;44.512;26.104;2023-06-24T05:53:12;18.70;;;13.90;;
46158;SDS011;31888;44.512;26.104;2023-06-24T05:55:37;19.55;;;14.75;;
46158;SDS011;31888;44.512;26.104;2023-06-24T05:58:02;19.08;;;14.32;;
46158;SDS011;31888;44.512;26.104;2023-06-24T06:00:26;25.48;;;14.57;;
46158;SDS011;31888;44.512;26.104;2023-06-24T06:02:53;21.92;;;14.30;;
46158;SDS011;31888;44.512;26.104;2023-06-24T06:05:18;18.25;;;13.68;;
46158;SDS011;31888;44.512;26.104;2023-06-24T06:07:42;21.10;;;15.35;;
46158;SDS011;31888;44.512;26.104;2023-06-24T06:10:08;20.85;;;13.70;;
46158;SDS011;31888;44.512;26.104;2023-06-24T06:12:33;20.15;;;13.90;;
46158;SDS011;31888;44.512;26.104;2023-06-24T06:14:58;23.13;;;14.27;;
46158;SDS011;31888;44.512;26.104;2023-06-24T06:17:29;26.67;;;14.65;;
46158;SDS011;31888;44.512;26.104;2023-06-24T06:19:59;18.52;;;14.00;;
46158;SDS011;31888;44.512;26.104;2023-06-24T06:22:45;27.23;;;14.87;;
46158;SDS011;31888;44.512;26.104;2023-06-24T06:25:10;22.80;;;16.90;;
46158;SDS011;31888;44.512;26.104;2023-06-24T06:27:34;21.42;;;16.85;;
46158;SDS011;31888;44.512;26.104;2023-06-24T06:30:00;22.75;;;16.38;;
46158;SDS011;31888;44.512;26.104;2023-06-24T06:32:25;18.67;;;16.00;;
46158;SDS011;31888;44.512;26.104;2023-06-24T06:34:53;24.48;;;18.05;;
46158;SDS011;31888;44.512;26.104;2023-06-24T06:37:20;21.85;;;16.85;;
46158;SDS011;31888;44.512;26.104;2023-06-24T06:39:44;20.77;;;16.50;;
46158;SDS011;31888;44.512;26.104;2023-06-24T06:42:09;19.48;;;16.63;;
46158;SDS011;31888;44.512;26.104;2023-06-24T06:44:34;24.42;;;16.13;;
46158;SDS011;31888;44.512;26.104;2023-06-24T06:46:58;20.92;;;16.08;;
46158;SDS011;31888;44.512;26.104;2023-06-24T06:49:24;19.98;;;16.45;;
46158;SDS011;31888;44.512;26.104;2023-06-24T06:51:49;21.50;;;16.40;;
46158;SDS011;31888;44.512;26.104;2023-06-24T06:54:15;20.02;;;16.20;;
46158;SDS011;31888;44.512;26.104;2023-06-24T06:56:40;20.58;;;15.02;;
46158;SDS011;31888;44.512;26.104;2023-06-24T06:59:04;22.60;;;15.32;;
46158;SDS011;31888;44.512;26.104;2023-06-24T07:01:29;18.67;;;15.93;;
46158;SDS011;31888;44.512;26.104;2023-06-24T07:03:54;22.63;;;15.23;;
46158;SDS011;31888;44.512;26.104;2023-06-24T07:06:19;20.30;;;14.95;;
46158;SDS011;31888;44.512;26.104;2023-06-24T07:08:44;18.80;;;15.02;;
46158;SDS011;31888;44.512;26.104;2023-06-24T07:11:10;25.35;;;15.40;;
46158;SDS011;31888;44.512;26.104;2023-06-24T07:13:35;17.98;;;14.90;;
46158;SDS011;31888;44.512;26.104;2023-06-24T07:16:00;19.20;;;15.77;;
46158;SDS011;31888;44.512;26.104;2023-06-24T07:18:24;20.17;;;15.88;;
46158;SDS011;31888;44.512;26.104;2023-06-24T07:20:53;19.65;;;14.93;;
46158;SDS011;31888;44.512;26.104;2023-06-24T07:23:18;18.25;;;15.73;;
46158;SDS011;31888;44.512;26.104;2023-06-24T07:25:43;19.08;;;15.25;;
46158;SDS011;31888;44.512;26.104;2023-06-24T07:28:09;20.17;;;15.52;;
46158;SDS011;31888;44.512;26.104;2023-06-24T07:30:35;22.10;;;15.77;;
46158;SDS011;31888;44.512;26.104;2023-06-24T07:33:00;22.05;;;15.35;;
46158;SDS011;31888;44.512;26.104;2023-06-24T07:35:28;19.02;;;16.27;;
46158;SDS011;31888;44.512;26.104;2023-06-24T07:37:52;22.38;;;15.70;;
46158;SDS011;31888;44.512;26.104;2023-06-24T07:40:17;24.50;;;15.18;;
46158;SDS011;31888;44.512;26.104;2023-06-24T07:42:42;20.00;;;15.00;;
46158;SDS011;31888;44.512;26.104;2023-06-24T07:45:11;16.50;;;14.70;;
46158;SDS011;31888;44.512;26.104;2023-06-24T07:47:37;21.88;;;15.18;;
46158;SDS011;31888;44.512;26.104;2023-06-24T07:50:01;19.27;;;15.40;;
46158;SDS011;31888;44.512;26.104;2023-06-24T07:52:28;19.30;;;14.88;;
46158;SDS011;31888;44.512;26.104;2023-06-24T07:54:53;20.60;;;15.25;;
46158;SDS011;31888;44.512;26.104;2023-06-24T07:57:17;16.20;;;13.02;;
46158;SDS011;31888;44.512;26.104;2023-06-24T07:59:42;16.95;;;14.55;;
46158;SDS011;31888;44.512;26.104;2023-06-24T08:02:08;22.25;;;14.32;;
46158;SDS011;31888;44.512;26.104;2023-06-24T08:04:33;24.70;;;14.57;;
46158;SDS011;31888;44.512;26.104;2023-06-24T08:06:58;18.33;;;13.73;;
46158;SDS011;31888;44.512;26.104;2023-06-24T08:09:23;20.20;;;13.43;;
46158;SDS011;31888;44.512;26.104;2023-06-24T08:11:47;17.58;;;14.88;;
46158;SDS011;31888;44.512;26.104;2023-06-24T08:14:12;14.55;;;12.85;;
46158;SDS011;31888;44.512;26.104;2023-06-24T08:16:37;16.20;;;14.48;;
46158;SDS011;31888;44.512;26.104;2023-06-24T08:19:04;17.83;;;14.40;;
46158;SDS011;31888;44.512;26.104;2023-06-24T08:21:28;17.50;;;14.20;;
46158;SDS011;31888;44.512;26.104;2023-06-24T08:23:53;16.52;;;14.00;;
46158;SDS011;31888;44.512;26.104;2023-06-24T08:26:19;14.95;;;13.05;;
46158;SDS011;31888;44.512;26.104;2023-06-24T08:28:45;17.75;;;13.43;;
46158;SDS011;31888;44.512;26.104;2023-06-24T08:31:10;19.38;;;13.27;;
46158;SDS011;31888;44.512;26.104;2023-06-24T08:33:35;15.50;;;13.35;;
46158;SDS011;31888;44.512;26.104;2023-06-24T08:36:01;16.40;;;12.95;;
46158;SDS011;31888;44.512;26.104;2023-06-24T08:38:26;16.70;;;13.98;;
46158;SDS011;31888;44.512;26.104;2023-06-24T08:40:51;18.17;;;12.65;;
46158;SDS011;31888;44.512;26.104;2023-06-24T08:43:16;16.88;;;13.52;;
46158;SDS011;31888;44.512;26.104;2023-06-24T08:45:41;14.90;;;12.90;;
46158;SDS011;31888;44.512;26.104;2023-06-24T08:48:06;15.18;;;13.20;;
46158;SDS011;31888;44.512;26.104;2023-06-24T08:50:33;16.52;;;13.15;;
46158;SDS011;31888;44.512;26.104;2023-06-24T08:53:05;15.90;;;12.38;;
46158;SDS011;31888;44.512;26.104;2023-06-24T08:55:32;15.23;;;12.65;;
46158;SDS011;31888;44.512;26.104;2023-06-24T08:58:03;18.08;;;11.98;;
46158;SDS011;31888;44.512;26.104;2023-06-24T09:00:28;16.50;;;11.93;;
46158;SDS011;31888;44.512;26.104;2023-06-24T09:02:53;14.48;;;12.02;;
46158;SDS011;31888;44.512;26.104;2023-06-24T09:05:19;14.88;;;11.68;;
46158;SDS011;31888;44.512;26.104;2023-06-24T09:07:44;15.02;;;10.98;;
46158;SDS011;31888;44.512;26.104;2023-06-24T09:10:10;13.38;;;10.55;;
46158;SDS011;31888;44.512;26.104;2023-06-24T09:12:54;14.55;;;10.82;;
46158;SDS011;31888;44.512;26.104;2023-06-24T09:15:18;12.70;;;11.32;;
46158;SDS011;31888;44.512;26.104;2023-06-24T09:17:44;14.27;;;11.25;;
46158;SDS011;31888;44.512;26.104;2023-06-24T09:20:10;12.57;;;11.13;;
46158;SDS011;31888;44.512;26.104;2023-06-24T09:22:36;15.80;;;11.32;;
46158;SDS011;31888;44.512;26.104;2023-06-24T09:25:04;11.60;;;10.27;;
46158;SDS011;31888;44.512;26.104;2023-06-24T09:27:31;14.55;;;10.93;;
46158;SDS011;31888;44.512;26.104;2023-06-24T09:29:56;13.63;;;10.85;;
46158;SDS011;31888;44.512;26.104;2023-06-24T09:32:21;17.48;;;11.98;;
46158;SDS011;31888;44.512;26.104;2023-06-24T09:34:54;15.65;;;11.18;;
46158;SDS011;31888;44.512;26.104;2023-06-24T09:37:21;13.32;;;11.20;;
46158;SDS011;31888;44.512;26.104;2023-06-24T09:39:48;11.75;;;10.60;;
46158;SDS011;31888;44.512;26.104;2023-06-24T09:42:20;14.10;;;11.65;;
46158;SDS011;31888;44.512;26.104;2023-06-24T09:44:53;12.60;;;10.30;;
46158;SDS011;31888;44.512;26.104;2023-06-24T09:47:20;13.68;;;11.32;;
46158;SDS011;31888;44.512;26.104;2023-06-24T09:49:49;16.13;;;10.88;;
46158;SDS011;31888;44.512;26.104;2023-06-24T09:52:14;15.95;;;11.27;;
46158;SDS011;31888;44.512;26.104;2023-06-24T09:54:39;13.23;;;10.82;;
46158;SDS011;31888;44.512;26.104;2023-06-24T09:57:05;12.25;;;10.95;;
46158;SDS011;31888;44.512;26.104;2023-06-24T10:02:01;12.70;;;11.10;;
46158;SDS011;31888;44.512;26.104;2023-06-24T10:04:27;16.17;;;11.45;;
46158;SDS011;31888;44.512;26.104;2023-06-24T10:06:51;13.75;;;11.85;;
46158;SDS011;31888;44.512;26.104;2023-06-24T10:09:16;14.35;;;10.98;;
46158;SDS011;31888;44.512;26.104;2023-06-24T10:11:42;13.48;;;11.32;;
46158;SDS011;31888;44.512;26.104;2023-06-24T10:14:08;15.98;;;11.70;;
46158;SDS011;31888;44.512;26.104;2023-06-24T10:16:32;15.43;;;11.10;;
46158;SDS011;31888;44.512;26.104;2023-06-24T10:19:01;13.20;;;11.63;;
46158;SDS011;31888;44.512;26.104;2023-06-24T10:21:30;13.65;;;11.95;;
46158;SDS011;31888;44.512;26.104;2023-06-24T10:24:10;17.27;;;12.10;;
46158;SDS011;31888;44.512;26.104;2023-06-24T10:26:35;13.90;;;12.02;;
46158;SDS011;31888;44.512;26.104;2023-06-24T10:29:12;12.98;;;11.50;;
46158;SDS011;31888;44.512;26.104;2023-06-24T10:31:50;14.57;;;12.68;;
46158;SDS011;31888;44.512;26.104;2023-06-24T10:34:21;15.40;;;12.23;;
46158;SDS011;31888;44.512;26.104;2023-06-24T10:36:52;13.43;;;11.85;;
46158;SDS011;31888;44.512;26.104;2023-06-24T10:41:57;13.50;;;11.82;;
46158;SDS011;31888;44.512;26.104;2023-06-24T10:44:44;13.93;;;12.02;;
46158;SDS011;31888;44.512;26.104;2023-06-24T10:47:09;15.57;;;11.55;;
46158;SDS011;31888;44.512;26.104;2023-06-24T10:49:35;13.20;;;11.85;;
46158;SDS011;31888;44.512;26.104;2023-06-24T10:52:00;14.13;;;11.77;;
46158;SDS011;31888;44.512;26.104;2023-06-24T10:54:26;14.55;;;12.80;;
46158;SDS011;31888;44.512;26.104;2023-06-24T10:56:50;12.73;;;11.30;;
46158;SDS011;31888;44.512;26.104;2023-06-24T10:59:18;13.43;;;12.05;;
46158;SDS011;31888;44.512;26.104;2023-06-24T11:01:51;15.45;;;12.00;;
46158;SDS011;31888;44.512;26.104;2023-06-24T11:04:16;15.38;;;11.63;;
46158;SDS011;31888;44.512;26.104;2023-06-24T11:06:42;13.13;;;11.82;;
46158;SDS011;31888;44.512;26.104;2023-06-24T11:09:07;12.68;;;11.30;;
46158;SDS011;31888;44.512;26.104;2023-06-24T11:11:32;14.55;;;11.80;;
46158;SDS011;31888;44.512;26.104;2023-06-24T11:13:57;11.95;;;10.80;;
46158;SDS011;31888;44.512;26.104;2023-06-24T11:16:22;14.75;;;11.70;;
46158;SDS011;31888;44.512;26.104;2023-06-24T11:18:47;13.68;;;11.40;;
46158;SDS011;31888;44.512;26.104;2023-06-24T11:21:13;14.93;;;11.93;;
46158;SDS011;31888;44.512;26.104;2023-06-24T11:23:39;14.18;;;12.77;;
46158;SDS011;31888;44.512;26.104;2023-06-24T11:26:05;14.13;;;11.30;;
46158;SDS011;31888;44.512;26.104;2023-06-24T11:28:31;12.32;;;11.13;;
46158;SDS011;31888;44.512;26.104;2023-06-24T11:30:55;14.27;;;11.18;;
46158;SDS011;31888;44.512;26.104;2023-06-24T11:33:27;14.25;;;11.65;;
46158;SDS011;31888;44.512;26.104;2023-06-24T11:35:52;14.20;;;11.77;;
46158;SDS011;31888;44.512;26.104;2023-06-24T11:38:16;14.10;;;11.30;;
46158;SDS011;31888;44.512;26.104;2023-06-24T11:40:42;13.88;;;11.57;;
46158;SDS011;31888;44.512;26.104;2023-06-24T11:43:07;13.27;;;11.40;;
46158;SDS011;31888;44.512;26.104;2023-06-24T11:45:31;12.77;;;10.95;;
46158;SDS011;31888;44.512;26.104;2023-06-24T11:48:01;17.27;;;11.93;;
46158;SDS011;31888;44.512;26.104;2023-06-24T11:50:32;12.25;;;10.95;;
46158;SDS011;31888;44.512;26.104;2023-06-24T11:53:01;15.70;;;11.18;;
46158;SDS011;31888;44.512;26.104;2023-06-24T11:55:34;14.73;;;10.98;;
46158;SDS011;31888;44.512;26.104;2023-06-24T11:58:02;12.82;;;11.48;;
46158;SDS011;31888;44.512;26.104;2023-06-24T12:00:35;12.40;;;10.98;;
46158;SDS011;31888;44.512;26.104;2023-06-24T12:03:22;13.38;;;11.30;;
46158;SDS011;31888;44.512;26.104;2023-06-24T12:05:52;14.18;;;11.55;;
46158;SDS011;31888;44.512;26.104;2023-06-24T12:08:16;12.23;;;11.05;;
46158;SDS011;31888;44.512;26.104;2023-06-24T12:10:42;19.42;;;11.80;;
46158;SDS011;31888;44.512;26.104;2023-06-24T12:13:09;13.73;;;10.70;;
46158;SDS011;31888;44.512;26.104;2023-06-24T12:15:34;15.10;;;11.48;;
46158;SDS011;31888;44.512;26.104;2023-06-24T12:18:00;14.10;;;11.13;;
46158;SDS011;31888;44.512;26.104;2023-06-24T12:23:12;13.35;;;10.73;;
46158;SDS011;31888;44.512;26.104;2023-06-24T12:25:40;13.93;;;11.30;;
46158;SDS011;31888;44.512;26.104;2023-06-24T12:30:48;14.85;;;12.13;;
46158;SDS011;31888;44.512;26.104;2023-06-24T12:33:14;15.77;;;11.80;;
46158;SDS011;31888;44.512;26.104;2023-06-24T12:35:41;14.45;;;10.70;;
46158;SDS011;31888;44.512;26.104;2023-06-24T12:38:06;15.23;;;10.93;;
46158;SDS011;31888;44.512;26.104;2023-06-24T12:40:30;12.75;;;11.25;;
46158;SDS011;31888;44.512;26.104;2023-06-24T12:42:57;14.20;;;11.25;;
46158;SDS011;31888;44.512;26.104;2023-06-24T12:45:25;24.33;;;11.98;;
46158;SDS011;31888;44.512;26.104;2023-06-24T12:47:52;16.07;;;11.87;;
46158;SDS011;31888;44.512;26.104;2023-06-24T12:50:17;13.68;;;11.23;;
46158;SDS011;31888;44.512;26.104;2023-06-24T12:52:45;13.65;;;11.55;;
46158;SDS011;31888;44.512;26.104;2023-06-24T12:55:10;16.48;;;11.00;;
46158;SDS011;31888;44.512;26.104;2023-06-24T12:57:40;14.82;;;11.13;;
46158;SDS011;31888;44.512;26.104;2023-06-24T13:00:06;16.10;;;10.88;;
46158;SDS011;31888;44.512;26.104;2023-06-24T13:02:33;14.25;;;11.43;;
46158;SDS011;31888;44.512;26.104;2023-06-24T13:04:58;16.23;;;11.70;;
46158;SDS011;31888;44.512;26.104;2023-06-24T13:07:25;13.32;;;11.23;;
46158;SDS011;31888;44.512;26.104;2023-06-24T13:09:50;13.32;;;10.80;;
46158;SDS011;31888;44.512;26.104;2023-06-24T13:12:15;12.10;;;10.75;;
46158;SDS011;31888;44.512;26.104;2023-06-24T13:14:40;13.88;;;11.27;;
46158;SDS011;31888;44.512;26.104;2023-06-24T13:17:05;11.95;;;10.75;;
46158;SDS011;31888;44.512;26.104;2023-06-24T13:19:31;14.10;;;10.80;;
46158;SDS011;31888;44.512;26.104;2023-06-24T13:21:59;13.07;;;10.82;;
46158;SDS011;31888;44.512;26.104;2023-06-24T13:24:26;15.35;;;10.95;;
46158;SDS011;31888;44.512;26.104;2023-06-24T13:26:51;13.35;;;10.70;;
46158;SDS011;31888;44.512;26.104;2023-06-24T13:29:16;12.18;;;10.52;;
46158;SDS011;31888;44.512;26.104;2023-06-24T13:31:42;11.35;;;10.15;;
46158;SDS011;31888;44.512;26.104;2023-06-24T13:34:07;14.05;;;11.30;;
46158;SDS011;31888;44.512;26.104;2023-06-24T13:36:34;14.00;;;10.85;;
46158;SDS011;31888;44.512;26.104;2023-06-24T13:39:00;11.50;;;10.18;;
46158;SDS011;31888;44.512;26.104;2023-06-24T13:41:32;13.57;;;10.77;;
46158;SDS011;31888;44.512;26.104;2023-06-24T13:43:58;14.52;;;10.40;;
46158;SDS011;31888;44.512;26.104;2023-06-24T13:46:23;16.60;;;11.43;;
46158;SDS011;31888;44.512;26.104;2023-06-24T13:48:49;11.13;;;9.80;;
46158;SDS011;31888;44.512;26.104;2023-06-24T13:51:13;11.88;;;10.38;;
46158;SDS011;31888;44.512;26.104;2023-06-24T13:53:40;15.07;;;11.57;;
46158;SDS011;31888;44.512;26.104;2023-06-24T13:56:04;23.23;;;14.75;;
46158;SDS011;31888;44.512;26.104;2023-06-24T13:58:29;14.73;;;11.38;;
46158;SDS011;31888;44.512;26.104;2023-06-24T14:00:53;15.63;;;10.77;;
46158;SDS011;31888;44.512;26.104;2023-06-24T14:03:18;18.00;;;11.05;;
46158;SDS011;31888;44.512;26.104;2023-06-24T14:05:43;15.85;;;11.27;;
46158;SDS011;31888;44.512;26.104;2023-06-24T14:08:08;12.15;;;10.80;;
46158;SDS011;31888;44.512;26.104;2023-06-24T14:10:34;13.73;;;10.77;;
46158;SDS011;31888;44.512;26.104;2023-06-24T14:12:59;14.55;;;10.27;;
46158;SDS011;31888;44.512;26.104;2023-06-24T14:15:24;14.45;;;10.27;;
46158;SDS011;31888;44.512;26.104;2023-06-24T14:17:48;14.70;;;10.65;;
46158;SDS011;31888;44.512;26.104;2023-06-24T14:20:14;13.38;;;10.93;;
46158;SDS011;31888;44.512;26.104;2023-06-24T14:22:40;11.75;;;10.65;;